createdAt,value
2023-03-31T00:00:54.275Z,99538.66
2023-03-31T00:03:22.463Z,99532.41
2023-03-31T00:05:55.501Z,99520.22
2023-03-31T00:08:23.198Z,99516.81
2023-03-31T00:10:50.868Z,99519.34
2023-03-31T00:13:18.356Z,99526.25
2023-03-31T00:15:46.171Z,99524.69
2023-03-31T00:18:13.557Z,99527.91
2023-03-31T00:20:43.043Z,99522.97
2023-03-31T00:23:11.238Z,99518.56
2023-03-31T00:25:41.968Z,99512.41
2023-03-31T00:28:09.352Z,99524.75
2023-03-31T00:30:37.050Z,99524.03
2023-03-31T00:33:04.754Z,99519.59
2023-03-31T00:35:32.246Z,99518.00
2023-03-31T00:38:00.040Z,99517.12
2023-03-31T00:40:27.502Z,99508.53
2023-03-31T00:42:55.005Z,99511.75
2023-03-31T00:45:24.632Z,99509.50
2023-03-31T00:47:55.661Z,99509.38
2023-03-31T00:50:29.113Z,99498.22
2023-03-31T00:52:59.657Z,99500.88
2023-03-31T00:55:46.295Z,99504.66
2023-03-31T00:58:15.253Z,99502.88
2023-03-31T01:00:43.118Z,99502.28
2023-03-31T01:03:11.137Z,99505.81
2023-03-31T01:05:51.006Z,99502.22
2023-03-31T01:08:20.007Z,99503.28
2023-03-31T01:10:49.838Z,99502.56
2023-03-31T01:13:18.454Z,99503.56
2023-03-31T01:15:46.252Z,99493.03
2023-03-31T01:18:14.722Z,99496.47
2023-03-31T01:21:03.806Z,99488.88
2023-03-31T01:23:56.083Z,99494.19
2023-03-31T01:26:44.637Z,99491.41
2023-03-31T01:29:33.740Z,99501.06
2023-03-31T01:32:38.817Z,99500.59
2023-03-31T01:35:34.396Z,99498.00
2023-03-31T01:38:23.208Z,99503.28
2023-03-31T01:40:59.099Z,99494.56
2023-03-31T01:43:32.360Z,99499.78
2023-03-31T01:46:06.956Z,99492.19
2023-03-31T01:48:45.670Z,99499.06
2023-03-31T01:51:16.166Z,99496.47
2023-03-31T01:53:55.257Z,99499.94
2023-03-31T01:56:30.761Z,99494.09
2023-03-31T01:59:02.628Z,99506.37
2023-03-31T02:01:40.760Z,99503.66
2023-03-31T02:04:14.715Z,99501.22
2023-03-31T02:06:43.182Z,99499.34
2023-03-31T02:09:15.978Z,99501.25
2023-03-31T02:11:44.812Z,99493.44
2023-03-31T02:14:18.737Z,99496.00
2023-03-31T02:16:48.162Z,99499.50
2023-03-31T02:19:18.822Z,99492.72
2023-03-31T02:21:51.252Z,99488.47
2023-03-31T02:24:20.508Z,99490.28
2023-03-31T02:26:53.929Z,99485.78
2023-03-31T02:29:21.817Z,99487.47
2023-03-31T02:32:01.533Z,99485.91
2023-03-31T02:34:29.384Z,99476.41
2023-03-31T02:36:56.934Z,99473.00
2023-03-31T02:39:28.315Z,99472.22
2023-03-31T02:41:56.637Z,99465.25
2023-03-31T02:44:24.514Z,99473.22
2023-03-31T02:46:53.022Z,99477.47
2023-03-31T02:49:21.413Z,99485.53
2023-03-31T02:52:05.343Z,99487.22
2023-03-31T02:54:56.288Z,99482.03
2023-03-31T02:57:56.311Z,99471.69
2023-03-31T03:00:40.726Z,99478.50
2023-03-31T03:03:36.359Z,99478.53
2023-03-31T03:06:14.159Z,99481.22
2023-03-31T03:09:29.991Z,99485.69
2023-03-31T03:12:33.185Z,99486.56
2023-03-31T03:15:07.704Z,99485.84
2023-03-31T03:17:39.606Z,99479.00
2023-03-31T03:20:09.237Z,99479.78
2023-03-31T03:22:38.122Z,99474.59
2023-03-31T03:25:07.243Z,99481.63
2023-03-31T03:27:35.967Z,99478.16
2023-03-31T03:30:05.603Z,99471.22
2023-03-31T03:32:33.816Z,99469.44
2023-03-31T03:35:02.447Z,99472.09
2023-03-31T03:37:30.389Z,99474.66
2023-03-31T03:39:57.841Z,99470.38
2023-03-31T03:42:25.388Z,99465.13
2023-03-31T03:44:53.154Z,99458.06
2023-03-31T03:47:20.651Z,99464.19
2023-03-31T03:49:49.123Z,99469.50
2023-03-31T03:52:17.142Z,99468.66
2023-03-31T03:57:12.166Z,99475.66
2023-03-31T03:59:39.848Z,99476.69
2023-03-31T04:02:07.242Z,99468.84
2023-03-31T04:04:34.990Z,99462.81
2023-03-31T04:07:02.366Z,99461.13
2023-03-31T04:09:29.807Z,99459.47
2023-03-31T04:11:57.642Z,99451.50
2023-03-31T04:14:25.969Z,99437.75
2023-03-31T04:16:56.324Z,99441.19
2023-03-31T04:19:25.961Z,99443.66
2023-03-31T04:21:58.885Z,99444.63
2023-03-31T04:24:30.869Z,99449.91
2023-03-31T04:26:59.906Z,99443.72
2023-03-31T04:29:27.688Z,99451.75
2023-03-31T04:31:58.824Z,99458.66
2023-03-31T04:34:35.184Z,99456.06
2023-03-31T04:37:04.270Z,99450.84
2023-03-31T04:39:31.784Z,99455.09
2023-03-31T04:42:00.630Z,99453.38
2023-03-31T04:44:28.833Z,99445.59
2023-03-31T04:46:56.773Z,99442.06
2023-03-31T04:49:24.293Z,99438.66
2023-03-31T04:51:51.914Z,99442.06
2023-03-31T04:54:19.289Z,99439.31
2023-03-31T04:56:46.686Z,99441.19
2023-03-31T04:59:14.435Z,99433.34
2023-03-31T05:01:45.074Z,99426.38
2023-03-31T05:04:12.682Z,99433.38
2023-03-31T05:06:40.430Z,99439.50
2023-03-31T05:09:09.695Z,99430.84
2023-03-31T05:11:38.237Z,99423.84
2023-03-31T05:14:06.117Z,99421.25
2023-03-31T05:16:33.845Z,99415.94
2023-03-31T05:19:01.344Z,99412.47
2023-03-31T05:21:30.678Z,99416.78
2023-03-31T05:23:58.107Z,99418.47
2023-03-31T05:26:25.895Z,99422.81
2023-03-31T05:28:54.154Z,99415.72
2023-03-31T05:31:22.488Z,99418.22
2023-03-31T05:33:50.042Z,99406.78
2023-03-31T05:36:17.906Z,99404.84
2023-03-31T05:38:45.996Z,99409.75
2023-03-31T05:41:13.427Z,99419.03
2023-03-31T05:43:41.195Z,99408.25
2023-03-31T05:46:08.963Z,99414.69
2023-03-31T05:48:38.059Z,99415.84
2023-03-31T05:51:06.106Z,99413.59
2023-03-31T05:53:34.155Z,99414.09
2023-03-31T05:56:03.512Z,99415.56
2023-03-31T05:58:31.629Z,99413.63
2023-03-31T06:01:10.965Z,99408.72
2023-03-31T06:03:43.788Z,99407.50
2023-03-31T06:06:14.813Z,99408.91
2023-03-31T06:08:43.665Z,99405.25
2023-03-31T06:11:13.944Z,99399.56
2023-03-31T06:13:41.946Z,99406.53
2023-03-31T06:16:11.509Z,99400.03
2023-03-31T06:18:39.731Z,99392.16
2023-03-31T06:21:07.895Z,99390.28
2023-03-31T06:23:35.617Z,99390.13
2023-03-31T06:26:08.448Z,99387.94
2023-03-31T06:28:36.495Z,99380.59
2023-03-31T06:31:06.219Z,99385.59
2023-03-31T06:33:34.758Z,99386.25
2023-03-31T06:36:05.462Z,99378.47
2023-03-31T06:38:34.840Z,99378.66
2023-03-31T06:41:03.024Z,99373.28
2023-03-31T06:43:30.873Z,99373.38
2023-03-31T06:45:58.478Z,99382.88
2023-03-31T06:48:27.126Z,99378.34
2023-03-31T06:50:54.896Z,99386.88
2023-03-31T06:53:22.394Z,99398.97
2023-03-31T06:55:50.088Z,99393.31
2023-03-31T06:58:17.538Z,99397.66
2023-03-31T07:00:47.536Z,99395.00
2023-03-31T07:03:18.761Z,99396.81
2023-03-31T07:05:51.014Z,99390.03
2023-03-31T07:08:18.834Z,99387.88
2023-03-31T07:10:48.869Z,99384.53
2023-03-31T07:13:17.139Z,99387.81
2023-03-31T07:15:47.748Z,99382.94
2023-03-31T07:18:16.172Z,99374.16
2023-03-31T07:20:44.151Z,99377.53
2023-03-31T07:23:11.845Z,99372.16
2023-03-31T07:25:39.326Z,99366.47
2023-03-31T07:28:06.867Z,99365.88
2023-03-31T07:30:34.657Z,99358.94
2023-03-31T07:33:02.709Z,99348.66
2023-03-31T07:35:31.376Z,99355.06
2023-03-31T07:37:59.388Z,99346.37
2023-03-31T07:40:30.081Z,99343.66
2023-03-31T07:42:57.633Z,99341.88
2023-03-31T07:45:26.147Z,99346.41
2023-03-31T07:47:53.723Z,99344.59
2023-03-31T07:50:21.954Z,99345.91
2023-03-31T07:52:50.725Z,99343.94
2023-03-31T07:55:19.864Z,99342.22
2023-03-31T07:57:47.771Z,99340.06
2023-03-31T08:00:16.376Z,99341.78
2023-03-31T08:02:44.511Z,99344.59
2023-03-31T08:05:14.025Z,99331.97
2023-03-31T08:07:44.895Z,99331.41
2023-03-31T08:10:22.501Z,99320.78
2023-03-31T08:12:49.977Z,99322.84
2023-03-31T08:15:17.768Z,99307.84
2023-03-31T08:17:45.620Z,99311.19
2023-03-31T08:20:13.271Z,99307.69
2023-03-31T08:22:41.194Z,99305.78
2023-03-31T08:25:09.395Z,99300.91
2023-03-31T08:27:39.394Z,99301.69
2023-03-31T08:30:09.593Z,99290.47
2023-03-31T08:32:37.380Z,99287.47
2023-03-31T08:35:05.299Z,99284.63
2023-03-31T08:37:33.300Z,99270.06
2023-03-31T08:40:00.769Z,99262.59
2023-03-31T08:42:50.334Z,99265.34
2023-03-31T08:45:27.251Z,99263.09
2023-03-31T08:47:59.704Z,99250.97
2023-03-31T08:50:31.053Z,99254.37
2023-03-31T08:53:09.076Z,99255.47
2023-03-31T08:56:09.721Z,99239.53
2023-03-31T08:58:42.939Z,99231.03
2023-03-31T09:01:18.248Z,99227.88
2023-03-31T09:04:17.369Z,99228.81
2023-03-31T09:07:23.572Z,99227.12
2023-03-31T09:10:03.377Z,99219.19
2023-03-31T09:12:54.798Z,99218.97
2023-03-31T09:15:28.435Z,99220.31
2023-03-31T09:17:59.583Z,99215.34
2023-03-31T09:20:48.821Z,99207.63
2023-03-31T09:23:25.639Z,99208.78
2023-03-31T09:25:53.258Z,99209.63
2023-03-31T09:28:27.269Z,99208.78
2023-03-31T09:30:55.489Z,99199.56
2023-03-31T09:33:33.657Z,99198.16
2023-03-31T09:36:02.004Z,99190.81
2023-03-31T09:38:31.127Z,99188.38
2023-03-31T09:40:59.433Z,99180.59
2023-03-31T09:43:28.588Z,99177.66
2023-03-31T09:46:09.334Z,99171.56
2023-03-31T09:48:37.884Z,99168.63
2023-03-31T09:51:07.588Z,99167.91
2023-03-31T09:53:47.238Z,99171.63
2023-03-31T09:56:34.460Z,99155.09
2023-03-31T09:59:02.826Z,99162.16
2023-03-31T10:01:30.580Z,99158.41
2023-03-31T10:03:58.500Z,99148.94
2023-03-31T10:06:26.931Z,99140.59
2023-03-31T10:09:00.065Z,99141.53
2023-03-31T10:11:28.121Z,99139.91
2023-03-31T10:13:58.934Z,99142.09
2023-03-31T10:16:29.443Z,99124.22
2023-03-31T10:19:16.015Z,99114.88
2023-03-31T10:21:46.047Z,99118.72
2023-03-31T10:24:19.842Z,99112.88
2023-03-31T10:26:53.723Z,99111.56
2023-03-31T10:29:29.750Z,99115.03
2023-03-31T10:32:03.701Z,99102.88
2023-03-31T10:34:31.925Z,99106.12
2023-03-31T10:36:59.843Z,99092.69
2023-03-31T10:39:31.795Z,99093.22
2023-03-31T10:41:59.395Z,99097.88
2023-03-31T10:44:37.879Z,99087.66
2023-03-31T10:47:14.538Z,99089.53
2023-03-31T10:49:43.289Z,99091.81
2023-03-31T10:52:17.858Z,99083.44
2023-03-31T10:54:59.278Z,99084.22
2023-03-31T10:57:40.290Z,99082.94
2023-03-31T11:00:19.043Z,99076.00
2023-03-31T11:03:08.234Z,99080.59
2023-03-31T11:06:20.387Z,99074.44
2023-03-31T11:09:01.915Z,99071.16
2023-03-31T11:11:56.078Z,99067.56
2023-03-31T11:14:45.242Z,99061.66
2023-03-31T11:17:34.175Z,99064.00
2023-03-31T11:20:07.773Z,99057.19
2023-03-31T11:22:42.171Z,99063.63
2023-03-31T11:25:23.770Z,99057.47
2023-03-31T11:28:16.323Z,99043.50
2023-03-31T11:31:08.854Z,99026.56
2023-03-31T11:34:04.367Z,99016.19
2023-03-31T11:36:52.729Z,99004.53
2023-03-31T11:39:36.990Z,98988.66
2023-03-31T11:42:19.084Z,98981.72
2023-03-31T11:44:53.055Z,98979.59
2023-03-31T11:47:24.599Z,98974.91
2023-03-31T11:49:55.736Z,98969.53
2023-03-31T11:52:40.706Z,98956.91
2023-03-31T11:55:18.873Z,98946.75
2023-03-31T11:57:50.746Z,98939.78
2023-03-31T12:00:21.759Z,98934.34
2023-03-31T12:02:55.517Z,98929.06
2023-03-31T12:05:24.787Z,98923.22
2023-03-31T12:08:05.149Z,98922.53
2023-03-31T12:10:43.265Z,98927.25
2023-03-31T12:13:34.495Z,98929.56
2023-03-31T12:18:38.204Z,98909.44
2023-03-31T12:21:06.616Z,98901.84
2023-03-31T12:23:40.718Z,98902.63
2023-03-31T12:26:17.009Z,98905.25
2023-03-31T12:28:45.938Z,98909.81
2023-03-31T12:31:20.717Z,98909.94
2023-03-31T12:34:01.110Z,98898.41
2023-03-31T12:37:06.500Z,98903.91
2023-03-31T12:39:45.047Z,98896.00
2023-03-31T12:42:40.873Z,98894.38
2023-03-31T12:45:14.656Z,98884.59
2023-03-31T12:47:42.039Z,98885.91
2023-03-31T12:50:34.168Z,98873.06
2023-03-31T12:53:25.201Z,98869.72
2023-03-31T12:55:59.939Z,98862.81
2023-03-31T12:58:31.903Z,98846.91
2023-03-31T13:01:07.174Z,98857.13
2023-03-31T13:03:45.626Z,98859.41
2023-03-31T13:06:25.924Z,98856.66
2023-03-31T13:09:00.940Z,98855.81
2023-03-31T13:11:39.248Z,98845.13
2023-03-31T13:14:06.520Z,98838.31
2023-03-31T13:16:35.028Z,98827.25
2023-03-31T13:19:02.768Z,98825.66
2023-03-31T13:21:30.648Z,98824.81
2023-03-31T13:24:02.086Z,98814.00
2023-03-31T13:26:32.613Z,98806.81
2023-03-31T13:29:11.974Z,98797.56
2023-03-31T13:32:01.385Z,98784.81
2023-03-31T13:34:48.437Z,98792.47
2023-03-31T13:37:45.059Z,98792.22
2023-03-31T13:40:50.617Z,98783.44
2023-03-31T13:43:33.884Z,98762.75
2023-03-31T13:46:33.795Z,98751.84
2023-03-31T13:49:11.165Z,98733.00
2023-03-31T13:52:03.270Z,98736.66
2023-03-31T13:54:49.474Z,98745.16
2023-03-31T13:57:39.565Z,98748.78
2023-03-31T14:00:28.767Z,98743.09
2023-03-31T14:03:11.687Z,98742.94
2023-03-31T14:06:01.136Z,98732.88
2023-03-31T14:08:53.424Z,98720.69
2023-03-31T14:11:20.933Z,98713.50
2023-03-31T14:14:13.002Z,98711.69
2023-03-31T14:16:50.292Z,98704.00
2023-03-31T14:19:55.373Z,98691.56
2023-03-31T14:22:43.857Z,98681.75
2023-03-31T14:25:40.946Z,98673.78
2023-03-31T14:28:34.587Z,98664.75
2023-03-31T14:31:13.550Z,98671.34
2023-03-31T14:33:55.431Z,98662.75
2023-03-31T14:36:29.452Z,98655.16
2023-03-31T14:39:03.709Z,98650.59
2023-03-31T14:41:31.558Z,98646.16
2023-03-31T14:44:02.278Z,98639.34
2023-03-31T14:46:32.886Z,98645.13
2023-03-31T14:49:07.439Z,98643.22
2023-03-31T14:51:34.860Z,98636.03
2023-03-31T14:54:02.985Z,98629.91
2023-03-31T14:56:36.049Z,98638.84
2023-03-31T14:59:04.367Z,98641.88
2023-03-31T15:01:39.717Z,98633.69
2023-03-31T15:04:10.560Z,98642.59
2023-03-31T15:06:39.972Z,98642.53
2023-03-31T15:09:08.335Z,98645.91
2023-03-31T15:11:35.943Z,98643.09
2023-03-31T15:14:05.616Z,98636.63
2023-03-31T15:16:44.272Z,98635.63
2023-03-31T15:19:19.006Z,98630.53
2023-03-31T15:21:53.828Z,98637.06
2023-03-31T15:24:22.283Z,98644.28
2023-03-31T15:26:55.961Z,98639.72
2023-03-31T15:29:34.023Z,98639.03
2023-03-31T15:32:02.011Z,98637.16
2023-03-31T15:34:33.345Z,98633.22
2023-03-31T15:37:01.719Z,98620.81
2023-03-31T15:39:32.536Z,98612.13
2023-03-31T15:42:03.412Z,98620.47
2023-03-31T15:44:33.970Z,98598.44
2023-03-31T15:47:06.690Z,98596.75
2023-03-31T15:49:34.545Z,98595.75
2023-03-31T15:52:04.490Z,98591.97
2023-03-31T15:54:43.096Z,98591.22
2023-03-31T15:57:36.127Z,98586.09
2023-03-31T16:00:07.121Z,98586.88
2023-03-31T16:02:44.146Z,98593.72
2023-03-31T16:05:51.397Z,98590.13
2023-03-31T16:08:38.098Z,98587.75
2023-03-31T16:11:11.091Z,98590.59
2023-03-31T16:13:41.351Z,98581.75
2023-03-31T16:16:11.257Z,98586.28
2023-03-31T16:18:50.214Z,98586.53
2023-03-31T16:21:26.936Z,98591.81
2023-03-31T16:23:57.461Z,98588.19
2023-03-31T16:26:28.130Z,98585.91
2023-03-31T16:28:57.476Z,98596.28
2023-03-31T16:31:34.481Z,98597.47
2023-03-31T16:34:04.716Z,98601.03
2023-03-31T16:36:32.574Z,98616.22
2023-03-31T16:39:02.276Z,98609.38
2023-03-31T16:41:30.074Z,98625.91
2023-03-31T16:43:57.838Z,98632.16
2023-03-31T16:46:25.872Z,98631.97
2023-03-31T16:48:53.536Z,98636.03
2023-03-31T16:51:21.267Z,98635.59
2023-03-31T16:53:48.741Z,98632.88
2023-03-31T16:56:16.283Z,98623.94
2023-03-31T16:58:44.071Z,98629.59
2023-03-31T17:01:11.847Z,98619.66
2023-03-31T17:03:41.720Z,98623.59
2023-03-31T17:06:12.151Z,98625.97
2023-03-31T17:08:39.998Z,98610.69
2023-03-31T17:11:10.987Z,98626.88
2023-03-31T17:13:39.807Z,98623.69
2023-03-31T17:18:56.125Z,98631.56
2023-03-31T17:21:24.338Z,98627.19
2023-03-31T17:23:51.781Z,98615.78
2023-03-31T17:26:19.490Z,98617.91
2023-03-31T17:28:46.927Z,98619.94
2023-03-31T17:31:19.421Z,98607.97
2023-03-31T17:33:47.657Z,98602.56
2023-03-31T17:36:15.721Z,98597.84
2023-03-31T17:38:43.197Z,98592.59
2023-03-31T17:41:12.952Z,98583.41
2023-03-31T17:43:44.501Z,98578.16
2023-03-31T17:46:12.859Z,98576.37
2023-03-31T17:48:41.970Z,98585.13
2023-03-31T17:51:15.460Z,98597.63
2023-03-31T17:53:45.174Z,98593.78
2023-03-31T17:56:14.169Z,98606.41
2023-03-31T17:58:41.780Z,98610.41
2023-03-31T18:01:10.527Z,98614.09
2023-03-31T18:03:38.512Z,98620.50
2023-03-31T18:06:08.503Z,98616.56
2023-03-31T18:08:36.238Z,98612.00
2023-03-31T18:11:05.641Z,98606.59
2023-03-31T18:13:34.793Z,98604.38
2023-03-31T18:16:02.728Z,98602.97
2023-03-31T18:18:30.557Z,98596.31
2023-03-31T18:20:58.142Z,98609.81
2023-03-31T18:23:25.551Z,98607.50
2023-03-31T18:25:53.279Z,98614.69
2023-03-31T18:28:20.982Z,98630.38
2023-03-31T18:30:48.525Z,98626.75
2023-03-31T18:33:16.561Z,98624.91
2023-03-31T18:35:44.550Z,98625.31
2023-03-31T18:38:12.135Z,98641.22
2023-03-31T18:40:39.784Z,98655.03
2023-03-31T18:43:08.265Z,98646.41
2023-03-31T18:45:38.509Z,98646.50
2023-03-31T18:48:06.252Z,98646.72
2023-03-31T18:50:33.926Z,98645.16
2023-03-31T18:53:01.317Z,98636.31
2023-03-31T18:55:29.662Z,98639.25
2023-03-31T18:57:58.038Z,98648.78
2023-03-31T19:00:25.503Z,98644.50
2023-03-31T19:02:53.679Z,98656.19
2023-03-31T19:05:21.461Z,98658.63
2023-03-31T19:07:48.817Z,98662.19
2023-03-31T19:10:16.769Z,98669.31
2023-03-31T19:12:48.594Z,98665.59
2023-03-31T19:15:16.680Z,98661.09
2023-03-31T19:17:44.124Z,98655.53
2023-03-31T19:20:16.503Z,98657.59
2023-03-31T19:22:49.368Z,98660.06
2023-03-31T19:25:19.563Z,98654.00
2023-03-31T19:27:47.304Z,98651.53
2023-03-31T19:30:24.335Z,98655.56
2023-03-31T19:32:52.128Z,98656.66
2023-03-31T19:35:19.858Z,98659.31
2023-03-31T19:37:48.741Z,98665.19
2023-03-31T19:40:16.518Z,98655.09
2023-03-31T19:42:44.559Z,98657.22
2023-03-31T19:45:12.245Z,98649.84
2023-03-31T19:47:40.144Z,98653.06
2023-03-31T19:50:08.579Z,98650.69
2023-03-31T19:52:36.558Z,98658.56
2023-03-31T19:55:04.975Z,98651.41
2023-03-31T19:57:32.634Z,98657.59
2023-03-31T20:00:01.315Z,98648.75
2023-03-31T20:02:32.870Z,98648.16
2023-03-31T20:05:01.777Z,98652.87
2023-03-31T20:07:30.087Z,98643.81
2023-03-31T20:09:57.642Z,98645.75
2023-03-31T20:12:25.323Z,98645.41
2023-03-31T20:14:52.797Z,98639.94
2023-03-31T20:17:20.697Z,98637.09
2023-03-31T20:19:48.349Z,98637.88
2023-03-31T20:22:15.955Z,98637.44
2023-03-31T20:24:43.456Z,98632.00
2023-03-31T20:27:11.238Z,98631.19
2023-03-31T20:29:38.669Z,98627.06
2023-03-31T20:32:06.232Z,98630.78
2023-03-31T20:34:34.086Z,98619.66
2023-03-31T20:37:03.297Z,98615.75
2023-03-31T20:39:31.114Z,98618.12
2023-03-31T20:41:58.759Z,98605.13
2023-03-31T20:44:26.497Z,98610.44
2023-03-31T20:46:55.501Z,98606.03
2023-03-31T20:49:23.303Z,98601.34
2023-03-31T20:51:51.013Z,98599.47
2023-03-31T20:54:18.528Z,98596.38
2023-03-31T20:56:47.133Z,98596.16
2023-03-31T20:59:15.193Z,98600.59
2023-03-31T21:01:42.982Z,98595.97
2023-03-31T21:04:11.908Z,98597.87
2023-03-31T21:06:42.309Z,98599.94
2023-03-31T21:09:11.722Z,98591.97
2023-03-31T21:11:40.773Z,98589.69
2023-03-31T21:14:11.599Z,98583.06
2023-03-31T21:16:40.266Z,98587.34
2023-03-31T21:19:07.681Z,98586.22
2023-03-31T21:21:36.088Z,98571.44
2023-03-31T21:24:04.029Z,98562.16
2023-03-31T21:26:31.415Z,98562.59
2023-03-31T21:28:58.833Z,98561.37
2023-03-31T21:31:27.232Z,98559.38
2023-03-31T21:33:57.528Z,98557.19
2023-03-31T21:36:25.542Z,98557.56
2023-03-31T21:38:54.083Z,98565.69
2023-03-31T21:41:24.131Z,98562.94
2023-03-31T21:43:52.164Z,98568.78
2023-03-31T21:46:23.463Z,98567.78
2023-03-31T21:48:50.944Z,98575.84
2023-03-31T21:51:20.003Z,98566.34
2023-03-31T21:53:48.495Z,98577.38
2023-03-31T21:56:16.366Z,98571.75
2023-03-31T21:58:43.803Z,98568.22
2023-03-31T22:01:11.727Z,98572.25
2023-03-31T22:03:42.139Z,98575.19
2023-03-31T22:06:09.851Z,98575.13
2023-03-31T22:08:38.912Z,98572.00
2023-03-31T22:11:08.645Z,98571.28
2023-03-31T22:13:36.615Z,98565.03
2023-03-31T22:16:05.441Z,98558.84
2023-03-31T22:18:33.213Z,98559.75
2023-03-31T22:21:02.483Z,98553.63
2023-03-31T22:23:29.934Z,98562.66
2023-03-31T22:25:57.672Z,98550.72
2023-03-31T22:28:25.022Z,98554.91
2023-03-31T22:30:52.396Z,98546.84
2023-03-31T22:33:20.046Z,98549.28
2023-03-31T22:35:49.250Z,98552.22
2023-03-31T22:38:16.698Z,98546.28
2023-03-31T22:40:44.340Z,98545.91
2023-03-31T22:43:11.696Z,98543.09
2023-03-31T22:45:39.186Z,98545.66
2023-03-31T22:48:08.603Z,98544.00
2023-03-31T22:50:36.158Z,98547.47
2023-03-31T22:53:03.654Z,98538.44
2023-03-31T22:55:31.577Z,98537.19
2023-03-31T22:57:59.082Z,98542.41
2023-03-31T23:00:27.177Z,98536.16
2023-03-31T23:02:54.906Z,98541.75
2023-03-31T23:05:24.279Z,98538.56
2023-03-31T23:07:51.875Z,98526.41
2023-03-31T23:10:19.658Z,98526.31
2023-03-31T23:12:47.363Z,98521.50
2023-03-31T23:15:14.911Z,98521.09
2023-03-31T23:17:42.610Z,98516.00
2023-03-31T23:20:10.602Z,98518.62
2023-03-31T23:22:38.000Z,98525.94
2023-03-31T23:25:06.410Z,98517.84
2023-03-31T23:27:33.906Z,98520.97
2023-03-31T23:30:01.426Z,98524.66
2023-03-31T23:32:29.113Z,98532.75
2023-03-31T23:34:56.485Z,98539.28
2023-03-31T23:37:23.920Z,98541.34
2023-03-31T23:39:52.060Z,98549.16
2023-03-31T23:42:20.772Z,98550.91
2023-03-31T23:44:48.426Z,98544.94
2023-03-31T23:47:16.259Z,98539.78
2023-03-31T23:49:43.943Z,98536.47
2023-03-31T23:52:11.397Z,98531.34
2023-03-31T23:54:39.031Z,98529.25
2023-03-31T23:57:06.456Z,98531.88
2023-03-31T23:59:33.979Z,98528.53
